Marshall, Nebraska
Current Conditions -  °F | °C
As of 9:53 AM on Saturday 25 Oct 2014 (Local Time) from KHSI Reporting Station
Clear Clear  
Wind Chill: 56°   Ceiling: Unl
Heat Index: 56°   Visibility: 10mi
Dew Point: 44°   Wind: 7mph
Humidity: 64%   Direction: 50°NE
Pressure: 30.12"   Gusts: NA
Location:  40.4815°N, 97.9942°W
Report Text: KHSI 251453Z AUTO 05006KT 10SM CLR 13/07 A3012 RMK AO2 SLP197 T01330067 51012 $
Loading
Personal Weather Stations






























Interactive Weather Map
Tropical Storm Tracking
New forecast layout! Learn more

10-Day Weather Forecast

Advertisements
Track Severe Weather on mobile